sensor_id;sensor_type;location;lat;lon;timestamp;pressure;altitude;pressure_sealevel;temperature;humidity
45525;BME280;31437;58.350;13.828;2022-07-05T00:00:41;99635.50;;;10.07;100.00
45525;BME280;31437;58.350;13.828;2022-07-05T00:03:07;99632.03;;;10.06;100.00
45525;BME280;31437;58.350;13.828;2022-07-05T00:05:32;99633.78;;;10.06;100.00
45525;BME280;31437;58.350;13.828;2022-07-05T00:07:57;99637.38;;;10.05;100.00
45525;BME280;31437;58.350;13.828;2022-07-05T00:10:23;99640.94;;;10.04;100.00
45525;BME280;31437;58.350;13.828;2022-07-05T00:12:48;99634.84;;;10.03;100.00
45525;BME280;31437;58.350;13.828;2022-07-05T00:15:13;99632.22;;;10.03;100.00
45525;BME280;31437;58.350;13.828;2022-07-05T00:17:39;99638.31;;;10.04;100.00
45525;BME280;31437;58.350;13.828;2022-07-05T00:20:04;99634.75;;;10.05;100.00
45525;BME280;31437;58.350;13.828;2022-07-05T00:22:30;99632.03;;;10.06;100.00
45525;BME280;31437;58.350;13.828;2022-07-05T00:24:55;99638.97;;;10.07;100.00
45525;BME280;31437;58.350;13.828;2022-07-05T00:27:20;99636.53;;;10.04;100.00
45525;BME280;31437;58.350;13.828;2022-07-05T00:29:46;99639.34;;;10.01;100.00
45525;BME280;31437;58.350;13.828;2022-07-05T00:32:11;99632.50;;;9.98;100.00
45525;BME280;31437;58.350;13.828;2022-07-05T00:34:37;99633.63;;;9.94;100.00
45525;BME280;31437;58.350;13.828;2022-07-05T00:37:02;99631.28;;;9.90;100.00
45525;BME280;31437;58.350;13.828;2022-07-05T00:39:28;99628.09;;;9.85;100.00
45525;BME280;31437;58.350;13.828;2022-07-05T00:41:53;99631.00;;;9.80;100.00
45525;BME280;31437;58.350;13.828;2022-07-05T00:44:27;99631.06;;;9.78;100.00
45525;BME280;31437;58.350;13.828;2022-07-05T00:46:52;99622.56;;;9.75;100.00
45525;BME280;31437;58.350;13.828;2022-07-05T00:49:18;99620.97;;;9.72;100.00
45525;BME280;31437;58.350;13.828;2022-07-05T00:51:43;99627.31;;;9.68;100.00
45525;BME280;31437;58.350;13.828;2022-07-05T00:54:08;99621.25;;;9.68;100.00
45525;BME280;31437;58.350;13.828;2022-07-05T00:56:33;99632.81;;;9.64;100.00
45525;BME280;31437;58.350;13.828;2022-07-05T00:58:59;99630.38;;;9.61;100.00
45525;BME280;31437;58.350;13.828;2022-07-05T01:01:24;99633.28;;;9.56;100.00
45525;BME280;31437;58.350;13.828;2022-07-05T01:03:50;99621.22;;;9.53;100.00
45525;BME280;31437;58.350;13.828;2022-07-05T01:06:16;99626.53;;;9.52;100.00
45525;BME280;31437;58.350;13.828;2022-07-05T01:08:42;99625.75;;;9.50;100.00
45525;BME280;31437;58.350;13.828;2022-07-05T01:11:09;99635.59;;;9.46;100.00
45525;BME280;31437;58.350;13.828;2022-07-05T01:13:35;99634.94;;;9.43;100.00
45525;BME280;31437;58.350;13.828;2022-07-05T01:16:01;99633.31;;;9.40;100.00
45525;BME280;31437;58.350;13.828;2022-07-05T01:18:27;99638.75;;;9.37;100.00
45525;BME280;31437;58.350;13.828;2022-07-05T01:20:52;99638.06;;;9.33;100.00
45525;BME280;31437;58.350;13.828;2022-07-05T01:23:18;99630.31;;;9.32;100.00
45525;BME280;31437;58.350;13.828;2022-07-05T01:25:44;99634.81;;;9.30;100.00
45525;BME280;31437;58.350;13.828;2022-07-05T01:28:10;99633.09;;;9.29;100.00
45525;BME280;31437;58.350;13.828;2022-07-05T01:30:35;99633.19;;;9.27;100.00
45525;BME280;31437;58.350;13.828;2022-07-05T01:33:01;99621.97;;;9.25;100.00
45525;BME280;31437;58.350;13.828;2022-07-05T01:35:26;99628.03;;;9.26;100.00
45525;BME280;31437;58.350;13.828;2022-07-05T01:37:52;99628.22;;;9.23;100.00
45525;BME280;31437;58.350;13.828;2022-07-05T01:40:18;99623.09;;;9.21;100.00
45525;BME280;31437;58.350;13.828;2022-07-05T01:42:43;99624.00;;;9.20;100.00
45525;BME280;31437;58.350;13.828;2022-07-05T01:45:09;99618.88;;;9.19;100.00
45525;BME280;31437;58.350;13.828;2022-07-05T01:47:35;99628.56;;;9.17;100.00
45525;BME280;31437;58.350;13.828;2022-07-05T01:50:01;99621.66;;;9.16;100.00
45525;BME280;31437;58.350;13.828;2022-07-05T01:52:27;99626.97;;;9.14;100.00
45525;BME280;31437;58.350;13.828;2022-07-05T01:54:53;99625.38;;;9.12;100.00
45525;BME280;31437;58.350;13.828;2022-07-05T01:57:18;99621.06;;;9.10;100.00
45525;BME280;31437;58.350;13.828;2022-07-05T01:59:43;99623.78;;;9.09;100.00
45525;BME280;31437;58.350;13.828;2022-07-05T02:02:09;99618.63;;;9.07;100.00
45525;BME280;31437;58.350;13.828;2022-07-05T02:04:35;99628.16;;;9.08;100.00
45525;BME280;31437;58.350;13.828;2022-07-05T02:07:03;99618.72;;;9.06;100.00
45525;BME280;31437;58.350;13.828;2022-07-05T02:09:29;99609.19;;;9.05;100.00
45525;BME280;31437;58.350;13.828;2022-07-05T02:11:54;99607.41;;;9.05;100.00
45525;BME280;31437;58.350;13.828;2022-07-05T02:14:20;99605.53;;;9.07;100.00
45525;BME280;31437;58.350;13.828;2022-07-05T02:16:46;99602.00;;;9.08;100.00
45525;BME280;31437;58.350;13.828;2022-07-05T02:19:11;99602.84;;;9.09;100.00
45525;BME280;31437;58.350;13.828;2022-07-05T02:21:36;99606.22;;;9.11;100.00
45525;BME280;31437;58.350;13.828;2022-07-05T02:24:02;99615.66;;;9.14;100.00
45525;BME280;31437;58.350;13.828;2022-07-05T02:26:27;99617.25;;;9.16;100.00
45525;BME280;31437;58.350;13.828;2022-07-05T02:28:53;99617.09;;;9.19;100.00
45525;BME280;31437;58.350;13.828;2022-07-05T02:31:18;99610.84;;;9.22;100.00
45525;BME280;31437;58.350;13.828;2022-07-05T02:33:45;99614.22;;;9.24;100.00
45525;BME280;31437;58.350;13.828;2022-07-05T02:36:11;99619.28;;;9.27;100.00
45525;BME280;31437;58.350;13.828;2022-07-05T02:38:37;99623.50;;;9.29;100.00
45525;BME280;31437;58.350;13.828;2022-07-05T02:41:06;99619.94;;;9.30;100.00
45525;BME280;31437;58.350;13.828;2022-07-05T02:43:32;99620.53;;;9.36;100.00
45525;BME280;31437;58.350;13.828;2022-07-05T02:45:58;99623.78;;;9.39;100.00
45525;BME280;31437;58.350;13.828;2022-07-05T02:48:23;99626.13;;;9.44;100.00
45525;BME280;31437;58.350;13.828;2022-07-05T02:50:49;99623.25;;;9.48;100.00
45525;BME280;31437;58.350;13.828;2022-07-05T02:53:14;99623.84;;;9.53;100.00
45525;BME280;31437;58.350;13.828;2022-07-05T02:55:39;99622.53;;;9.61;100.00
45525;BME280;31437;58.350;13.828;2022-07-05T02:58:04;99627.31;;;9.68;100.00
45525;BME280;31437;58.350;13.828;2022-07-05T03:00:30;99634.63;;;9.77;100.00
45525;BME280;31437;58.350;13.828;2022-07-05T03:02:55;99636.78;;;9.85;100.00
45525;BME280;31437;58.350;13.828;2022-07-05T03:05:21;99639.59;;;9.96;100.00
45525;BME280;31437;58.350;13.828;2022-07-05T03:07:46;99646.72;;;10.09;100.00
45525;BME280;31437;58.350;13.828;2022-07-05T03:10:11;99651.28;;;10.35;100.00
45525;BME280;31437;58.350;13.828;2022-07-05T03:12:37;99654.56;;;10.80;100.00
45525;BME280;31437;58.350;13.828;2022-07-05T03:15:02;99641.22;;;11.37;100.00
45525;BME280;31437;58.350;13.828;2022-07-05T03:17:27;99656.56;;;11.96;100.00
45525;BME280;31437;58.350;13.828;2022-07-05T03:19:53;99666.78;;;12.39;100.00
45525;BME280;31437;58.350;13.828;2022-07-05T03:22:18;99669.16;;;12.68;100.00
45525;BME280;31437;58.350;13.828;2022-07-05T03:24:43;99668.38;;;13.03;100.00
45525;BME280;31437;58.350;13.828;2022-07-05T03:27:08;99668.81;;;13.33;100.00
45525;BME280;31437;58.350;13.828;2022-07-05T03:29:34;99674.63;;;13.50;100.00
45525;BME280;31437;58.350;13.828;2022-07-05T03:31:59;99681.78;;;13.72;100.00
45525;BME280;31437;58.350;13.828;2022-07-05T03:34:24;99677.31;;;14.07;100.00
45525;BME280;31437;58.350;13.828;2022-07-05T03:36:50;99686.09;;;14.30;100.00
45525;BME280;31437;58.350;13.828;2022-07-05T03:39:15;99684.78;;;14.36;100.00
45525;BME280;31437;58.350;13.828;2022-07-05T03:41:40;99694.25;;;14.61;100.00
45525;BME280;31437;58.350;13.828;2022-07-05T03:44:05;99704.22;;;14.91;100.00
45525;BME280;31437;58.350;13.828;2022-07-05T03:46:31;99699.56;;;15.27;100.00
45525;BME280;31437;58.350;13.828;2022-07-05T03:48:56;99693.31;;;15.60;100.00
45525;BME280;31437;58.350;13.828;2022-07-05T03:51:21;99700.66;;;15.89;100.00
45525;BME280;31437;58.350;13.828;2022-07-05T03:53:47;99695.72;;;16.05;100.00
45525;BME280;31437;58.350;13.828;2022-07-05T03:56:12;99695.31;;;16.00;100.00
45525;BME280;31437;58.350;13.828;2022-07-05T03:58:37;99690.00;;;16.00;100.00
45525;BME280;31437;58.350;13.828;2022-07-05T04:01:03;99689.50;;;16.06;100.00
45525;BME280;31437;58.350;13.828;2022-07-05T04:03:28;99666.09;;;16.11;100.00
45525;BME280;31437;58.350;13.828;2022-07-05T04:05:53;99653.78;;;16.22;100.00
45525;BME280;31437;58.350;13.828;2022-07-05T04:08:18;99645.09;;;16.10;100.00
45525;BME280;31437;58.350;13.828;2022-07-05T04:10:44;99615.53;;;15.74;100.00
45525;BME280;31437;58.350;13.828;2022-07-05T04:13:09;99600.06;;;15.58;100.00
45525;BME280;31437;58.350;13.828;2022-07-05T04:15:34;99593.63;;;15.93;100.00
45525;BME280;31437;58.350;13.828;2022-07-05T04:18:00;99562.47;;;16.37;100.00
45525;BME280;31437;58.350;13.828;2022-07-05T04:20:25;99555.31;;;16.88;100.00
45525;BME280;31437;58.350;13.828;2022-07-05T04:22:50;99531.59;;;17.35;100.00
45525;BME280;31437;58.350;13.828;2022-07-05T04:25:16;99512.66;;;17.67;100.00
45525;BME280;31437;58.350;13.828;2022-07-05T04:27:41;99490.44;;;17.87;100.00
45525;BME280;31437;58.350;13.828;2022-07-05T04:30:07;99454.94;;;18.16;100.00
45525;BME280;31437;58.350;13.828;2022-07-05T04:32:33;99429.16;;;18.44;100.00
45525;BME280;31437;58.350;13.828;2022-07-05T04:34:58;99415.00;;;18.35;100.00
45525;BME280;31437;58.350;13.828;2022-07-05T04:37:24;99412.25;;;18.45;100.00
45525;BME280;31437;58.350;13.828;2022-07-05T04:39:49;99392.00;;;18.80;100.00
45525;BME280;31437;58.350;13.828;2022-07-05T04:42:14;99405.88;;;19.26;100.00
45525;BME280;31437;58.350;13.828;2022-07-05T04:44:40;99382.25;;;19.49;100.00
45525;BME280;31437;58.350;13.828;2022-07-05T04:47:05;99377.41;;;19.79;100.00
45525;BME280;31437;58.350;13.828;2022-07-05T04:49:30;99371.94;;;19.96;100.00
45525;BME280;31437;58.350;13.828;2022-07-05T04:51:56;99374.63;;;19.96;100.00
45525;BME280;31437;58.350;13.828;2022-07-05T04:54:21;99367.66;;;20.04;100.00
45525;BME280;31437;58.350;13.828;2022-07-05T04:56:46;99356.69;;;20.23;100.00
45525;BME280;31437;58.350;13.828;2022-07-05T04:59:11;99348.38;;;20.10;100.00
45525;BME280;31437;58.350;13.828;2022-07-05T05:01:37;99347.19;;;20.04;100.00
45525;BME280;31437;58.350;13.828;2022-07-05T05:04:02;99353.66;;;20.02;100.00
45525;BME280;31437;58.350;13.828;2022-07-05T05:06:27;99357.69;;;20.22;100.00
45525;BME280;31437;58.350;13.828;2022-07-05T05:08:53;99347.06;;;20.30;100.00
45525;BME280;31437;58.350;13.828;2022-07-05T05:11:18;99360.22;;;20.24;100.00
45525;BME280;31437;58.350;13.828;2022-07-05T05:13:43;99354.53;;;20.27;100.00
45525;BME280;31437;58.350;13.828;2022-07-05T05:16:10;99357.84;;;20.29;100.00
45525;BME280;31437;58.350;13.828;2022-07-05T05:18:36;99360.84;;;20.09;100.00
45525;BME280;31437;58.350;13.828;2022-07-05T05:21:01;99365.16;;;20.10;100.00
45525;BME280;31437;58.350;13.828;2022-07-05T05:23:26;99363.03;;;19.63;100.00
45525;BME280;31437;58.350;13.828;2022-07-05T05:25:51;99360.75;;;19.34;100.00
45525;BME280;31437;58.350;13.828;2022-07-05T05:28:17;99373.53;;;18.78;100.00
45525;BME280;31437;58.350;13.828;2022-07-05T05:30:42;99377.16;;;18.33;100.00
45525;BME280;31437;58.350;13.828;2022-07-05T05:33:07;99378.97;;;17.97;100.00
45525;BME280;31437;58.350;13.828;2022-07-05T05:35:33;99393.50;;;17.65;100.00
45525;BME280;31437;58.350;13.828;2022-07-05T05:37:58;99399.22;;;17.33;100.00
45525;BME280;31437;58.350;13.828;2022-07-05T05:40:24;99409.06;;;17.03;100.00
45525;BME280;31437;58.350;13.828;2022-07-05T05:42:49;99413.31;;;16.77;100.00
45525;BME280;31437;58.350;13.828;2022-07-05T05:45:15;99420.41;;;16.47;100.00
45525;BME280;31437;58.350;13.828;2022-07-05T05:50:09;99434.16;;;16.61;100.00
45525;BME280;31437;58.350;13.828;2022-07-05T05:52:34;99434.72;;;17.03;100.00
45525;BME280;31437;58.350;13.828;2022-07-05T05:55:00;99429.41;;;17.13;100.00
45525;BME280;31437;58.350;13.828;2022-07-05T05:57:25;99432.34;;;17.10;100.00
45525;BME280;31437;58.350;13.828;2022-07-05T05:59:50;99433.25;;;17.28;100.00
45525;BME280;31437;58.350;13.828;2022-07-05T06:02:15;99419.94;;;18.03;100.00
45525;BME280;31437;58.350;13.828;2022-07-05T06:04:41;99403.81;;;18.32;100.00
45525;BME280;31437;58.350;13.828;2022-07-05T06:07:06;99403.81;;;18.68;100.00
45525;BME280;31437;58.350;13.828;2022-07-05T06:09:31;99394.63;;;18.98;100.00
45525;BME280;31437;58.350;13.828;2022-07-05T06:11:57;99401.53;;;18.91;100.00
45525;BME280;31437;58.350;13.828;2022-07-05T06:14:22;99391.63;;;19.01;100.00
45525;BME280;31437;58.350;13.828;2022-07-05T06:16:47;99389.81;;;19.01;100.00
45525;BME280;31437;58.350;13.828;2022-07-05T06:19:12;99394.03;;;19.46;100.00
45525;BME280;31437;58.350;13.828;2022-07-05T06:21:38;99382.28;;;20.00;100.00
45525;BME280;31437;58.350;13.828;2022-07-05T06:24:03;99373.69;;;20.38;100.00
45525;BME280;31437;58.350;13.828;2022-07-05T06:26:28;99365.38;;;20.41;100.00
45525;BME280;31437;58.350;13.828;2022-07-05T06:28:54;99372.41;;;20.59;100.00
45525;BME280;31437;58.350;13.828;2022-07-05T06:31:19;99367.19;;;20.33;100.00
45525;BME280;31437;58.350;13.828;2022-07-05T06:33:44;99368.84;;;20.09;100.00
45525;BME280;31437;58.350;13.828;2022-07-05T06:36:10;99377.78;;;20.08;100.00
45525;BME280;31437;58.350;13.828;2022-07-05T06:38:35;99369.63;;;19.93;100.00
45525;BME280;31437;58.350;13.828;2022-07-05T06:41:00;99373.22;;;19.68;100.00
45525;BME280;31437;58.350;13.828;2022-07-05T06:43:25;99372.00;;;19.28;100.00
45525;BME280;31437;58.350;13.828;2022-07-05T06:45:51;99389.13;;;18.99;100.00
45525;BME280;31437;58.350;13.828;2022-07-05T06:48:16;99389.16;;;18.81;100.00
45525;BME280;31437;58.350;13.828;2022-07-05T06:50:42;99392.72;;;18.72;100.00
45525;BME280;31437;58.350;13.828;2022-07-05T06:53:08;99385.16;;;18.77;100.00
45525;BME280;31437;58.350;13.828;2022-07-05T06:55:34;99383.47;;;18.58;100.00
45525;BME280;31437;58.350;13.828;2022-07-05T06:58:00;99398.34;;;18.69;100.00
45525;BME280;31437;58.350;13.828;2022-07-05T07:00:26;99388.19;;;18.82;100.00
45525;BME280;31437;58.350;13.828;2022-07-05T07:02:51;99378.03;;;19.04;100.00
45525;BME280;31437;58.350;13.828;2022-07-05T07:05:17;99375.56;;;19.37;100.00
45525;BME280;31437;58.350;13.828;2022-07-05T07:07:42;99373.03;;;19.35;100.00
45525;BME280;31437;58.350;13.828;2022-07-05T07:10:25;99381.31;;;18.98;100.00
45525;BME280;31437;58.350;13.828;2022-07-05T07:12:51;99381.91;;;18.48;100.00
45525;BME280;31437;58.350;13.828;2022-07-05T07:15:16;99384.19;;;18.25;100.00
45525;BME280;31437;58.350;13.828;2022-07-05T07:17:42;99401.53;;;18.73;100.00
45525;BME280;31437;58.350;13.828;2022-07-05T07:20:07;99385.00;;;19.05;100.00
45525;BME280;31437;58.350;13.828;2022-07-05T07:22:32;99386.56;;;19.50;100.00
45525;BME280;31437;58.350;13.828;2022-07-05T07:24:58;99371.56;;;19.75;100.00
45525;BME280;31437;58.350;13.828;2022-07-05T07:27:23;99366.09;;;19.77;100.00
45525;BME280;31437;58.350;13.828;2022-07-05T07:29:48;99381.84;;;19.70;100.00
45525;BME280;31437;58.350;13.828;2022-07-05T07:32:14;99381.00;;;19.27;100.00
45525;BME280;31437;58.350;13.828;2022-07-05T07:34:39;99390.38;;;18.69;100.00
45525;BME280;31437;58.350;13.828;2022-07-05T07:37:05;99385.78;;;18.17;100.00
45525;BME280;31437;58.350;13.828;2022-07-05T07:39:30;99404.53;;;17.61;100.00
45525;BME280;31437;58.350;13.828;2022-07-05T07:41:58;99412.81;;;17.11;100.00
45525;BME280;31437;58.350;13.828;2022-07-05T07:44:24;99418.16;;;16.82;100.00
45525;BME280;31437;58.350;13.828;2022-07-05T07:46:49;99409.53;;;16.50;100.00
45525;BME280;31437;58.350;13.828;2022-07-05T07:49:15;99408.69;;;16.21;100.00
45525;BME280;31437;58.350;13.828;2022-07-05T07:51:41;99421.88;;;16.11;100.00
45525;BME280;31437;58.350;13.828;2022-07-05T07:54:06;99415.03;;;15.99;100.00
45525;BME280;31437;58.350;13.828;2022-07-05T07:56:32;99423.22;;;15.86;100.00
45525;BME280;31437;58.350;13.828;2022-07-05T07:58:57;99421.81;;;15.82;100.00
45525;BME280;31437;58.350;13.828;2022-07-05T08:01:22;99436.56;;;15.84;100.00
45525;BME280;31437;58.350;13.828;2022-07-05T08:03:48;99426.44;;;15.99;100.00
45525;BME280;31437;58.350;13.828;2022-07-05T08:06:14;99426.50;;;16.38;100.00
45525;BME280;31437;58.350;13.828;2022-07-05T08:08:43;99430.00;;;16.68;100.00
45525;BME280;31437;58.350;13.828;2022-07-05T08:11:13;99419.84;;;16.83;100.00
45525;BME280;31437;58.350;13.828;2022-07-05T08:13:38;99429.19;;;16.77;100.00
45525;BME280;31437;58.350;13.828;2022-07-05T08:16:05;99448.38;;;16.50;100.00
45525;BME280;31437;58.350;13.828;2022-07-05T08:18:31;99450.41;;;16.07;100.00
45525;BME280;31437;58.350;13.828;2022-07-05T08:21:15;99466.53;;;15.64;100.00
45525;BME280;31437;58.350;13.828;2022-07-05T08:23:59;99465.09;;;15.29;100.00
45525;BME280;31437;58.350;13.828;2022-07-05T08:26:25;99473.88;;;15.09;100.00
45525;BME280;31437;58.350;13.828;2022-07-05T08:28:50;99486.25;;;15.50;100.00
45525;BME280;31437;58.350;13.828;2022-07-05T08:31:16;99500.28;;;16.12;100.00
45525;BME280;31437;58.350;13.828;2022-07-05T08:33:41;99498.13;;;16.46;100.00
45525;BME280;31437;58.350;13.828;2022-07-05T08:36:06;99500.09;;;16.54;100.00
45525;BME280;31437;58.350;13.828;2022-07-05T08:38:32;99503.53;;;16.35;100.00
45525;BME280;31437;58.350;13.828;2022-07-05T08:40:58;99500.03;;;16.15;100.00
45525;BME280;31437;58.350;13.828;2022-07-05T08:43:23;99500.03;;;16.25;100.00
45525;BME280;31437;58.350;13.828;2022-07-05T08:45:49;99510.56;;;16.65;100.00
45525;BME280;31437;58.350;13.828;2022-07-05T08:48:15;99511.00;;;17.09;100.00
45525;BME280;31437;58.350;13.828;2022-07-05T08:50:41;99508.19;;;17.67;100.00
45525;BME280;31437;58.350;13.828;2022-07-05T08:53:07;99494.88;;;18.14;100.00
45525;BME280;31437;58.350;13.828;2022-07-05T08:55:32;99488.53;;;18.71;100.00
45525;BME280;31437;58.350;13.828;2022-07-05T08:57:58;99480.31;;;19.18;100.00
45525;BME280;31437;58.350;13.828;2022-07-05T09:00:23;99468.00;;;19.43;100.00
45525;BME280;31437;58.350;13.828;2022-07-05T09:02:50;99450.69;;;19.65;100.00
45525;BME280;31437;58.350;13.828;2022-07-05T09:05:15;99434.59;;;19.74;100.00
45525;BME280;31437;58.350;13.828;2022-07-05T09:07:44;99425.00;;;19.90;100.00
45525;BME280;31437;58.350;13.828;2022-07-05T09:10:14;99421.94;;;20.27;100.00
45525;BME280;31437;58.350;13.828;2022-07-05T09:12:41;99405.78;;;20.29;100.00
45525;BME280;31437;58.350;13.828;2022-07-05T09:15:07;99404.88;;;19.87;100.00
45525;BME280;31437;58.350;13.828;2022-07-05T09:17:32;99422.03;;;19.24;100.00
45525;BME280;31437;58.350;13.828;2022-07-05T09:20:05;99432.66;;;18.63;100.00
45525;BME280;31437;58.350;13.828;2022-07-05T09:25:27;99448.19;;;17.66;100.00
45525;BME280;31437;58.350;13.828;2022-07-05T09:27:58;99459.19;;;17.81;100.00
45525;BME280;31437;58.350;13.828;2022-07-05T09:30:42;99473.25;;;17.91;100.00
45525;BME280;31437;58.350;13.828;2022-07-05T09:35:33;99460.84;;;17.82;100.00
45525;BME280;31437;58.350;13.828;2022-07-05T09:37:59;99467.69;;;17.75;100.00
45525;BME280;31437;58.350;13.828;2022-07-05T09:40:28;99476.88;;;17.53;100.00
45525;BME280;31437;58.350;13.828;2022-07-05T09:43:09;99475.53;;;17.30;100.00
45525;BME280;31437;58.350;13.828;2022-07-05T09:45:34;99487.97;;;17.00;100.00
45525;BME280;31437;58.350;13.828;2022-07-05T09:48:00;99489.94;;;16.59;100.00
45525;BME280;31437;58.350;13.828;2022-07-05T09:50:35;99487.75;;;16.14;100.00
45525;BME280;31437;58.350;13.828;2022-07-05T09:53:00;99510.53;;;15.96;100.00
45525;BME280;31437;58.350;13.828;2022-07-05T09:55:26;99525.38;;;15.87;100.00
45525;BME280;31437;58.350;13.828;2022-07-05T09:57:51;99536.69;;;15.89;100.00
45525;BME280;31437;58.350;13.828;2022-07-05T10:00:18;99538.81;;;16.05;100.00
45525;BME280;31437;58.350;13.828;2022-07-05T10:02:44;99549.59;;;16.23;100.00
45525;BME280;31437;58.350;13.828;2022-07-05T10:05:14;99541.94;;;16.29;100.00
45525;BME280;31437;58.350;13.828;2022-07-05T10:07:40;99546.75;;;16.55;100.00
45525;BME280;31437;58.350;13.828;2022-07-05T10:10:07;99543.91;;;16.77;100.00
45525;BME280;31437;58.350;13.828;2022-07-05T10:12:32;99549.63;;;17.02;100.00
45525;BME280;31437;58.350;13.828;2022-07-05T10:15:00;99546.13;;;17.31;100.00
45525;BME280;31437;58.350;13.828;2022-07-05T10:17:26;99549.66;;;17.68;100.00
45525;BME280;31437;58.350;13.828;2022-07-05T10:19:53;99539.56;;;18.19;100.00
45525;BME280;31437;58.350;13.828;2022-07-05T10:22:19;99534.59;;;18.34;100.00
45525;BME280;31437;58.350;13.828;2022-07-05T10:24:45;99518.00;;;18.50;100.00
45525;BME280;31437;58.350;13.828;2022-07-05T10:27:10;99507.16;;;18.61;100.00
45525;BME280;31437;58.350;13.828;2022-07-05T10:29:37;99508.03;;;18.79;100.00
45525;BME280;31437;58.350;13.828;2022-07-05T10:32:05;99498.09;;;18.81;100.00
45525;BME280;31437;58.350;13.828;2022-07-05T10:34:32;99501.75;;;18.98;100.00
45525;BME280;31437;58.350;13.828;2022-07-05T10:36:57;99495.94;;;19.03;100.00
45525;BME280;31437;58.350;13.828;2022-07-05T10:39:23;99487.31;;;19.01;100.00
45525;BME280;31437;58.350;13.828;2022-07-05T10:41:51;99472.66;;;18.97;100.00
45525;BME280;31437;58.350;13.828;2022-07-05T10:44:25;99475.31;;;18.97;100.00
45525;BME280;31437;58.350;13.828;2022-07-05T10:46:50;99472.84;;;19.21;100.00
45525;BME280;31437;58.350;13.828;2022-07-05T10:49:16;99465.13;;;19.62;100.00
45525;BME280;31437;58.350;13.828;2022-07-05T10:51:42;99464.09;;;19.89;100.00
45525;BME280;31437;58.350;13.828;2022-07-05T10:54:08;99450.13;;;19.61;100.00
45525;BME280;31437;58.350;13.828;2022-07-05T10:56:34;99451.91;;;19.79;100.00
45525;BME280;31437;58.350;13.828;2022-07-05T10:59:06;99456.41;;;19.78;100.00
45525;BME280;31437;58.350;13.828;2022-07-05T11:01:34;99454.19;;;19.65;100.00
45525;BME280;31437;58.350;13.828;2022-07-05T11:06:26;99443.69;;;19.12;100.00
45525;BME280;31437;58.350;13.828;2022-07-05T11:11:24;99453.00;;;18.72;100.00
45525;BME280;31437;58.350;13.828;2022-07-05T11:13:50;99454.22;;;18.59;100.00
45525;BME280;31437;58.350;13.828;2022-07-05T11:16:22;99459.66;;;18.40;100.00
45525;BME280;31437;58.350;13.828;2022-07-05T11:18:49;99472.22;;;18.20;100.00
45525;BME280;31437;58.350;13.828;2022-07-05T11:21:21;99469.81;;;18.09;100.00
45525;BME280;31437;58.350;13.828;2022-07-05T11:23:47;99469.25;;;18.05;100.00
45525;BME280;31437;58.350;13.828;2022-07-05T11:26:13;99468.00;;;18.00;100.00
45525;BME280;31437;58.350;13.828;2022-07-05T11:28:45;99471.63;;;17.81;100.00
45525;BME280;31437;58.350;13.828;2022-07-05T11:31:11;99478.66;;;17.62;100.00
45525;BME280;31437;58.350;13.828;2022-07-05T11:36:03;99489.19;;;17.35;100.00
45525;BME280;31437;58.350;13.828;2022-07-05T11:38:29;99499.69;;;17.27;100.00
45525;BME280;31437;58.350;13.828;2022-07-05T11:40:56;99503.16;;;17.17;100.00
45525;BME280;31437;58.350;13.828;2022-07-05T11:43:35;99507.09;;;17.03;100.00
45525;BME280;31437;58.350;13.828;2022-07-05T11:46:00;99516.28;;;16.90;100.00
45525;BME280;31437;58.350;13.828;2022-07-05T11:48:26;99522.69;;;16.97;100.00
45525;BME280;31437;58.350;13.828;2022-07-05T11:50:52;99515.19;;;16.92;100.00
45525;BME280;31437;58.350;13.828;2022-07-05T11:53:30;99517.41;;;16.97;100.00
45525;BME280;31437;58.350;13.828;2022-07-05T11:55:59;99515.72;;;17.15;100.00
45525;BME280;31437;58.350;13.828;2022-07-05T11:58:31;99516.63;;;17.53;100.00
45525;BME280;31437;58.350;13.828;2022-07-05T12:00:58;99514.53;;;17.94;100.00
45525;BME280;31437;58.350;13.828;2022-07-05T12:03:23;99513.75;;;18.11;100.00
45525;BME280;31437;58.350;13.828;2022-07-05T12:05:49;99510.75;;;17.97;100.00
45525;BME280;31437;58.350;13.828;2022-07-05T12:08:24;99519.09;;;17.74;100.00
45525;BME280;31437;58.350;13.828;2022-07-05T12:10:50;99526.56;;;17.41;100.00
45525;BME280;31437;58.350;13.828;2022-07-05T12:13:43;99538.06;;;17.03;100.00
45525;BME280;31437;58.350;13.828;2022-07-05T12:16:10;99543.28;;;16.64;100.00
45525;BME280;31437;58.350;13.828;2022-07-05T12:18:54;99552.47;;;16.50;100.00
45525;BME280;31437;58.350;13.828;2022-07-05T12:21:20;99557.78;;;16.70;100.00
45525;BME280;31437;58.350;13.828;2022-07-05T12:23:46;99554.38;;;16.89;100.00
45525;BME280;31437;58.350;13.828;2022-07-05T12:26:12;99562.44;;;17.16;100.00
45525;BME280;31437;58.350;13.828;2022-07-05T12:28:38;99559.91;;;17.54;100.00
45525;BME280;31437;58.350;13.828;2022-07-05T12:31:16;99558.56;;;17.77;100.00
45525;BME280;31437;58.350;13.828;2022-07-05T12:33:42;99553.09;;;17.98;100.00
45525;BME280;31437;58.350;13.828;2022-07-05T12:36:14;99555.03;;;17.96;100.00
45525;BME280;31437;58.350;13.828;2022-07-05T12:38:39;99551.44;;;17.97;100.00
45525;BME280;31437;58.350;13.828;2022-07-05T12:41:05;99541.38;;;17.91;100.00
45525;BME280;31437;58.350;13.828;2022-07-05T12:43:30;99533.88;;;17.77;100.00
45525;BME280;31437;58.350;13.828;2022-07-05T12:45:59;99526.69;;;17.40;100.00
45525;BME280;31437;58.350;13.828;2022-07-05T12:48:34;99526.72;;;17.20;100.00
45525;BME280;31437;58.350;13.828;2022-07-05T12:51:00;99531.63;;;17.06;100.00
45525;BME280;31437;58.350;13.828;2022-07-05T12:53:28;99532.59;;;16.85;100.00